Time,TemperatureF,DewpointF,PressureIn,WindDirection,WindDirectionDegrees,WindSpeedMPH,WindSpeedGustMPH,Humidity,HourlyPrecipIn,Conditions,Clouds,dailyrainin,SoftwareType,DateUTC
2013-01-28 00:00:00,33.8,29.5,29.76,ENE,59,1.0,2.0,84,0.00,,,0.00,WeatherCatV1.11B39,2013-01-28 07:00:00,
2013-01-28 00:05:00,34.1,29.5,29.75,West,276,0.0,1.0,83,0.00,,,0.00,WeatherCatV1.11B39,2013-01-28 07:05:00,
2013-01-28 00:10:00,34.0,29.4,29.75,SW,228,1.0,1.0,83,0.00,,,0.00,WeatherCatV1.11B39,2013-01-28 07:10:00,
2013-01-28 00:15:00,34.0,29.4,29.74,East,89,0.0,1.0,83,0.00,,,0.00,WeatherCatV1.11B39,2013-01-28 07:15:00,
2013-01-28 00:20:00,34.0,29.1,29.74,WSW,248,0.0,1.0,82,0.00,,,0.00,WeatherCatV1.11B39,2013-01-28 07:20:00,
2013-01-28 00:25:00,34.0,30.0,29.75,NNW,338,1.0,2.0,85,0.00,,,0.00,WeatherCatV1.11B39,2013-01-28 07:25:00,
2013-01-28 00:30:00,33.9,29.9,29.75,West,278,1.0,3.0,85,0.00,,,0.00,WeatherCatV1.11B39,2013-01-28 07:30:00,
2013-01-28 00:35:00,36.1,29.6,29.75,SW,229,1.0,5.0,77,0.00,,,0.00,WeatherCatV1.11B39,2013-01-28 07:35:00,
2013-01-28 00:40:00,37.6,28.7,29.75,SW,228,5.0,15.0,70,0.00,,,0.00,WeatherCatV1.11B39,2013-01-28 07:40:00,
2013-01-28 00:45:00,41.2,29.2,29.75,WSW,247,4.0,13.0,62,0.00,,,0.00,WeatherCatV1.11B39,2013-01-28 07:45:00,
2013-01-28 00:50:00,42.1,28.4,29.76,WSW,246,4.0,10.0,58,0.00,,,0.00,WeatherCatV1.11B39,2013-01-28 07:50:00,
2013-01-28 00:55:00,41.7,30.4,29.76,NNW,342,4.0,6.0,64,0.00,,,0.00,WeatherCatV1.11B39,2013-01-28 07:55:00,
2013-01-28 01:00:00,39.5,30.9,29.76,SW,236,1.0,7.0,71,0.00,,,0.00,WeatherCatV1.11B39,2013-01-28 08:00:00,
2013-01-28 01:05:00,38.5,32.2,29.76,NNW,335,10.0,14.0,78,0.00,,,0.00,WeatherCatV1.11B39,2013-01-28 08:05:00,
2013-01-28 01:10:00,37.6,32.6,29.77,WNW,300,9.0,14.0,82,0.00,,,0.00,WeatherCatV1.11B39,2013-01-28 08:10:00,
2013-01-28 01:15:00,36.9,32.8,29.79,West,278,4.0,17.0,85,0.00,,,0.00,WeatherCatV1.11B39,2013-01-28 08:15:00,
2013-01-28 01:20:00,36.9,33.1,29.80,West,280,2.0,5.0,86,0.00,,,0.01,WeatherCatV1.11B39,2013-01-28 08:20:00,
2013-01-28 01:25:00,36.7,33.2,29.80,SSE,150,0.0,5.0,87,0.13,,,0.02,WeatherCatV1.11B39,2013-01-28 08:25:00,
2013-01-28 01:30:00,36.7,33.2,29.80,SSE,158,5.0,8.0,87,0.11,,,0.02,WeatherCatV1.11B39,2013-01-28 08:30:00,
2013-01-28 01:35:00,36.7,33.2,29.79,ESE,104,3.0,5.0,87,0.20,,,0.04,WeatherCatV1.11B39,2013-01-28 08:35:00,
2013-01-28 01:40:00,36.4,33.5,29.79,North,359,0.0,1.0,89,0.08,,,0.04,WeatherCatV1.11B39,2013-01-28 08:40:00,
2013-01-28 01:45:00,35.9,33.3,29.78,North,352,3.0,4.0,90,0.05,,,0.04,WeatherCatV1.11B39,2013-01-28 08:45:00,
2013-01-28 01:50:00,35.6,33.2,29.78,NNW,342,1.0,2.0,91,0.04,,,0.05,WeatherCatV1.11B39,2013-01-28 08:50:00,
2013-01-28 01:55:00,35.3,32.9,29.77,NW,316,2.0,3.0,91,0.04,,,0.05,WeatherCatV1.11B39,2013-01-28 08:55:00,
2013-01-28 02:00:00,34.9,32.8,29.77,WNW,291,2.0,3.0,92,0.04,,,0.05,WeatherCatV1.11B39,2013-01-28 09:00:00,
2013-01-28 02:05:00,34.6,32.8,29.77,WNW,295,1.0,2.0,93,0.04,,,0.05,WeatherCatV1.11B39,2013-01-28 09:05:00,
2013-01-28 02:10:00,34.4,32.6,29.77,SSE,163,1.0,1.0,93,0.00,,,0.05,WeatherCatV1.11B39,2013-01-28 09:10:00,
2013-01-28 02:15:00,34.1,32.3,29.77,ESE,108,0.0,0.0,93,0.00,,,0.05,WeatherCatV1.11B39,2013-01-28 09:15:00,
2013-01-28 02:20:00,33.9,32.1,29.77,NW,317,0.0,4.0,93,0.00,,,0.05,WeatherCatV1.11B39,2013-01-28 09:20:00,
2013-01-28 02:25:00,33.8,32.3,29.76,WNW,300,0.0,1.0,94,0.00,,,0.05,WeatherCatV1.11B39,2013-01-28 09:25:00,
2013-01-28 02:30:00,33.8,32.3,29.76,East,86,1.0,4.0,94,0.00,,,0.05,WeatherCatV1.11B39,2013-01-28 09:30:00,
2013-01-28 02:35:00,34.1,32.6,29.77,WNW,297,1.0,5.0,94,0.00,,,0.05,WeatherCatV1.11B39,2013-01-28 09:35:00,
2013-01-28 02:40:00,34.5,32.7,29.77,NE,37,3.0,6.0,93,0.00,,,0.05,WeatherCatV1.11B39,2013-01-28 09:40:00,
2013-01-28 02:45:00,34.5,32.7,29.77,ENE,75,0.0,1.0,93,0.00,,,0.05,WeatherCatV1.11B39,2013-01-28 09:45:00,
2013-01-28 02:50:00,34.4,32.6,29.76,West,264,2.0,4.0,93,0.00,,,0.05,WeatherCatV1.11B39,2013-01-28 09:50:00,
2013-01-28 02:55:00,34.2,32.7,29.76,North,352,4.0,5.0,94,0.00,,,0.05,WeatherCatV1.11B39,2013-01-28 09:55:00,
2013-01-28 03:00:00,34.1,32.6,29.76,NNW,329,3.0,5.0,94,0.00,,,0.05,WeatherCatV1.11B39,2013-01-28 10:00:00,
2013-01-28 03:05:00,34.0,32.5,29.75,North,4,4.0,11.0,94,0.00,,,0.05,WeatherCatV1.11B39,2013-01-28 10:05:00,
2013-01-28 03:10:00,33.7,32.2,29.76,NNE,33,0.0,2.0,94,0.00,,,0.05,WeatherCatV1.11B39,2013-01-28 10:10:00,
2013-01-28 03:15:00,33.6,32.1,29.76,South,169,0.0,1.0,94,0.00,,,0.05,WeatherCatV1.11B39,2013-01-28 10:15:00,
2013-01-28 03:20:00,33.5,32.2,29.76,WNW,300,1.0,1.0,95,0.00,,,0.05,WeatherCatV1.11B39,2013-01-28 10:20:00,
2013-01-28 03:25:00,33.5,32.2,29.75,North,9,4.0,4.0,95,0.00,,,0.05,WeatherCatV1.11B39,2013-01-28 10:25:00,
2013-01-28 03:30:00,33.5,32.2,29.74,West,278,1.0,3.0,95,0.00,,,0.05,WeatherCatV1.11B39,2013-01-28 10:30:00,
2013-01-28 03:35:00,33.5,32.2,29.75,NW,324,0.0,1.0,95,0.00,,,0.05,WeatherCatV1.11B39,2013-01-28 10:35:00,
2013-01-28 03:40:00,33.3,32.0,29.75,West,263,0.0,1.0,95,0.00,,,0.05,WeatherCatV1.11B39,2013-01-28 10:40:00,
2013-01-28 03:45:00,33.2,31.9,29.75,West,263,0.0,0.0,95,0.00,,,0.05,WeatherCatV1.11B39,2013-01-28 10:45:00,
2013-01-28 03:50:00,33.1,31.8,29.75,NE,40,1.0,1.0,95,0.00,,,0.05,WeatherCatV1.11B39,2013-01-28 10:50:00,
2013-01-28 03:55:00,33.1,32.1,29.75,SE,129,2.0,2.0,96,0.00,,,0.05,WeatherCatV1.11B39,2013-01-28 10:55:00,
2013-01-28 04:00:00,33.1,32.1,29.75,NNE,33,1.0,2.0,96,0.00,,,0.05,WeatherCatV1.11B39,2013-01-28 11:00:00,
2013-01-28 04:05:00,33.0,32.0,29.74,West,264,0.0,3.0,96,0.00,,,0.05,WeatherCatV1.11B39,2013-01-28 11:05:00,
2013-01-28 04:10:00,33.0,32.0,29.74,North,4,1.0,4.0,96,0.00,,,0.05,WeatherCatV1.11B39,2013-01-28 11:10:00,
2013-01-28 04:15:00,33.1,32.1,29.74,ESE,103,0.0,3.0,96,0.00,,,0.05,WeatherCatV1.11B39,2013-01-28 11:15:00,
2013-01-28 04:20:00,33.1,32.1,29.74,NNE,30,1.0,1.0,96,0.00,,,0.05,WeatherCatV1.11B39,2013-01-28 11:20:00,
2013-01-28 04:25:00,33.0,32.0,29.73,ENE,64,0.0,1.0,96,0.00,,,0.05,WeatherCatV1.11B39,2013-01-28 11:25:00,
2013-01-28 04:30:00,33.1,32.1,29.73,South,169,0.0,0.0,96,0.00,,,0.05,WeatherCatV1.11B39,2013-01-28 11:30:00,
2013-01-28 04:35:00,32.9,31.9,29.73,NNW,336,0.0,1.0,96,0.00,,,0.05,WeatherCatV1.11B39,2013-01-28 11:35:00,
2013-01-28 04:40:00,32.9,31.9,29.73,NW,304,1.0,2.0,96,0.00,,,0.05,WeatherCatV1.11B39,2013-01-28 11:40:00,
2013-01-28 04:45:00,32.8,31.8,29.73,WSW,246,2.0,2.0,96,0.00,,,0.05,WeatherCatV1.11B39,2013-01-28 11:45:00,
2013-01-28 04:50:00,32.8,31.8,29.72,North,9,0.0,1.0,96,0.00,,,0.05,WeatherCatV1.11B39,2013-01-28 11:50:00,
2013-01-28 04:55:00,32.7,31.7,29.73,West,281,0.0,1.0,96,0.00,,,0.05,WeatherCatV1.11B39,2013-01-28 11:55:00,
2013-01-28 05:00:00,32.8,31.8,29.73,NNW,332,0.0,2.0,96,0.00,,,0.05,WeatherCatV1.11B39,2013-01-28 12:00:00,
2013-01-28 05:05:00,33.0,32.0,29.73,WNW,294,1.0,2.0,96,0.00,,,0.05,WeatherCatV1.11B39,2013-01-28 12:05:00,
2013-01-28 05:10:00,33.0,32.0,29.72,NW,311,0.0,0.0,96,0.00,,,0.05,WeatherCatV1.11B39,2013-01-28 12:10:00,
2013-01-28 05:15:00,32.9,31.9,29.72,ESE,108,0.0,1.0,96,0.00,,,0.05,WeatherCatV1.11B39,2013-01-28 12:15:00,
2013-01-28 05:20:00,33.0,32.0,29.71,NNW,340,2.0,2.0,96,0.00,,,0.05,WeatherCatV1.11B39,2013-01-28 12:20:00,
2013-01-28 05:25:00,33.0,32.0,29.71,North,350,0.0,0.0,96,0.00,,,0.05,WeatherCatV1.11B39,2013-01-28 12:25:00,
2013-01-28 05:30:00,33.0,32.0,29.71,ESE,122,0.0,1.0,96,0.00,,,0.05,WeatherCatV1.11B39,2013-01-28 12:30:00,
2013-01-28 05:35:00,33.0,32.0,29.71,SE,124,0.0,1.0,96,0.00,,,0.05,WeatherCatV1.11B39,2013-01-28 12:35:00,
2013-01-28 05:40:00,32.9,31.9,29.70,SE,124,0.0,0.0,96,0.00,,,0.05,WeatherCatV1.11B39,2013-01-28 12:40:00,
2013-01-28 05:45:00,32.8,31.8,29.70,SE,124,0.0,0.0,96,0.00,,,0.05,WeatherCatV1.11B39,2013-01-28 12:45:00,
2013-01-28 05:50:00,32.7,31.7,29.71,SW,222,0.0,0.0,96,0.00,,,0.05,WeatherCatV1.11B39,2013-01-28 12:50:00,
2013-01-28 05:55:00,32.7,31.7,29.71,SW,222,0.0,0.0,96,0.00,,,0.05,WeatherCatV1.11B39,2013-01-28 12:55:00,
2013-01-28 06:00:00,32.7,31.7,29.71,WSW,255,0.0,0.0,96,0.00,,,0.05,WeatherCatV1.11B39,2013-01-28 13:00:00,
2013-01-28 06:05:00,32.6,31.6,29.71,NNE,15,0.0,1.0,96,0.00,,,0.05,WeatherCatV1.11B39,2013-01-28 13:05:00,
2013-01-28 06:10:00,32.5,31.5,29.71,NNE,15,0.0,0.0,96,0.00,,,0.05,WeatherCatV1.11B39,2013-01-28 13:10:00,
2013-01-28 06:15:00,32.5,31.5,29.71,NNE,14,0.0,0.0,96,0.00,,,0.05,WeatherCatV1.11B39,2013-01-28 13:15:00,
2013-01-28 06:20:00,32.4,31.4,29.71,NNE,15,0.0,0.0,96,0.00,,,0.05,WeatherCatV1.11B39,2013-01-28 13:20:00,
2013-01-28 06:25:00,32.4,31.6,29.71,North,352,0.0,1.0,97,0.00,,,0.05,WeatherCatV1.11B39,2013-01-28 13:25:00,
2013-01-28 06:30:00,32.4,31.6,29.71,North,352,0.0,0.0,97,0.00,,,0.05,WeatherCatV1.11B39,2013-01-28 13:30:00,
2013-01-28 06:35:00,32.5,31.7,29.71,North,355,0.0,0.0,97,0.00,,,0.05,WeatherCatV1.11B39,2013-01-28 13:35:00,
2013-01-28 06:40:00,32.5,31.7,29.71,NNE,20,0.0,0.0,97,0.00,,,0.05,WeatherCatV1.11B39,2013-01-28 13:40:00,
2013-01-28 06:45:00,32.5,31.7,29.71,NNE,20,0.0,0.0,97,0.00,,,0.05,WeatherCatV1.11B39,2013-01-28 13:45:00,
2013-01-28 06:50:00,32.4,31.6,29.71,NNE,20,0.0,0.0,97,0.00,,,0.05,WeatherCatV1.11B39,2013-01-28 13:50:00,
2013-01-28 06:55:00,32.4,31.6,29.70,NNE,20,0.0,0.0,97,0.00,,,0.05,WeatherCatV1.11B39,2013-01-28 13:55:00,
2013-01-28 07:00:00,32.4,31.6,29.70,NNE,20,0.0,0.0,97,0.00,,,0.05,WeatherCatV1.11B39,2013-01-28 14:00:00,
2013-01-28 07:05:00,32.4,31.6,29.69,WNW,297,1.0,1.0,97,0.00,,,0.05,WeatherCatV1.11B39,2013-01-28 14:05:00,
2013-01-28 07:10:00,32.3,31.5,29.69,WNW,285,1.0,1.0,97,0.00,,,0.05,WeatherCatV1.11B39,2013-01-28 14:10:00,
2013-01-28 07:15:00,32.3,31.5,29.69,NNW,329,1.0,1.0,97,0.00,,,0.05,WeatherCatV1.11B39,2013-01-28 14:15:00,
2013-01-28 07:20:00,32.3,31.5,29.68,NW,307,0.0,0.0,97,0.00,,,0.05,WeatherCatV1.11B39,2013-01-28 14:20:00,
2013-01-28 07:25:00,32.4,31.6,29.69,WNW,287,0.0,1.0,97,0.00,,,0.05,WeatherCatV1.11B39,2013-01-28 14:25:00,
2013-01-28 07:30:00,32.6,31.8,29.69,WNW,294,1.0,2.0,97,0.00,,,0.05,WeatherCatV1.11B39,2013-01-28 14:30:00,
2013-01-28 07:35:00,32.8,32.0,29.70,West,269,1.0,2.0,97,0.00,,,0.05,WeatherCatV1.11B39,2013-01-28 14:35:00,
2013-01-28 07:40:00,33.0,32.0,29.70,West,274,0.0,1.0,96,0.00,,,0.05,WeatherCatV1.11B39,2013-01-28 14:40:00,
2013-01-28 07:45:00,33.0,32.0,29.71,WNW,283,0.0,1.0,96,0.00,,,0.05,WeatherCatV1.11B39,2013-01-28 14:45:00,
2013-01-28 07:50:00,33.0,32.0,29.71,North,11,0.0,1.0,96,0.00,,,0.05,WeatherCatV1.11B39,2013-01-28 14:50:00,
2013-01-28 07:55:00,32.9,31.9,29.71,North,9,2.0,2.0,96,0.00,,,0.05,WeatherCatV1.11B39,2013-01-28 14:55:00,
2013-01-28 08:00:00,32.8,31.8,29.72,North,350,0.0,0.0,96,0.00,,,0.05,WeatherCatV1.11B39,2013-01-28 15:00:00,
2013-01-28 08:05:00,32.9,32.1,29.71,NNW,327,1.0,3.0,97,0.00,,,0.05,WeatherCatV1.11B39,2013-01-28 15:05:00,
2013-01-28 08:10:00,32.9,31.9,29.71,WNW,288,2.0,5.0,96,0.00,,,0.05,WeatherCatV1.11B39,2013-01-28 15:10:00,
2013-01-28 08:15:00,32.7,31.7,29.71,WNW,288,1.0,4.0,96,0.00,,,0.05,WeatherCatV1.11B39,2013-01-28 15:15:00,
2013-01-28 08:20:00,32.5,31.5,29.71,WNW,300,0.0,3.0,96,0.00,,,0.05,WeatherCatV1.11B39,2013-01-28 15:20:00,
2013-01-28 08:25:00,32.5,31.5,29.71,NNW,345,4.0,6.0,96,0.00,,,0.05,WeatherCatV1.11B39,2013-01-28 15:25:00,
2013-01-28 08:30:00,32.5,31.5,29.70,North,358,9.0,9.0,96,0.00,,,0.05,WeatherCatV1.11B39,2013-01-28 15:30:00,
2013-01-28 08:35:00,32.4,31.4,29.70,NW,325,2.0,7.0,96,0.00,,,0.05,WeatherCatV1.11B39,2013-01-28 15:35:00,
2013-01-28 08:40:00,32.3,31.3,29.70,NNW,332,2.0,6.0,96,0.00,,,0.05,WeatherCatV1.11B39,2013-01-28 15:40:00,
2013-01-28 08:45:00,32.2,31.2,29.71,NNW,347,5.0,6.0,96,0.00,,,0.05,WeatherCatV1.11B39,2013-01-28 15:45:00,
2013-01-28 08:50:00,32.2,31.2,29.71,WNW,283,0.0,2.0,96,0.00,,,0.05,WeatherCatV1.11B39,2013-01-28 15:50:00,
2013-01-28 08:55:00,32.1,31.3,29.72,West,262,0.0,1.0,97,0.00,,,0.05,WeatherCatV1.11B39,2013-01-28 15:55:00,
2013-01-28 09:00:00,32.1,31.3,29.72,North,354,2.0,3.0,97,0.00,,,0.05,WeatherCatV1.11B39,2013-01-28 16:00:00,
2013-01-28 09:05:00,32.1,31.1,29.72,WNW,287,0.0,3.0,96,0.00,,,0.05,WeatherCatV1.11B39,2013-01-28 16:05:00,
2013-01-28 09:10:00,32.0,31.0,29.72,NNW,335,4.0,4.0,96,0.00,,,0.05,WeatherCatV1.11B39,2013-01-28 16:10:00,
2013-01-28 09:15:00,32.0,31.2,29.71,NNW,338,1.0,5.0,97,0.00,,,0.05,WeatherCatV1.11B39,2013-01-28 16:15:00,
2013-01-28 09:20:00,32.0,31.2,29.72,WNW,284,0.0,2.0,97,0.00,,,0.05,WeatherCatV1.11B39,2013-01-28 16:20:00,
2013-01-28 09:25:00,32.1,31.3,29.72,NW,310,1.0,1.0,97,0.00,,,0.05,WeatherCatV1.11B39,2013-01-28 16:25:00,
2013-01-28 09:30:00,32.1,31.3,29.72,WNW,292,0.0,0.0,97,0.00,,,0.05,WeatherCatV1.11B39,2013-01-28 16:30:00,
2013-01-28 09:35:00,32.2,31.4,29.71,NNW,336,0.0,0.0,97,0.00,,,0.05,WeatherCatV1.11B39,2013-01-28 16:35:00,
2013-01-28 09:40:00,32.3,31.5,29.71,North,351,0.0,0.0,97,0.00,,,0.05,WeatherCatV1.11B39,2013-01-28 16:40:00,
2013-01-28 09:45:00,32.4,31.6,29.71,NW,319,0.0,0.0,97,0.00,,,0.05,WeatherCatV1.11B39,2013-01-28 16:45:00,
2013-01-28 09:50:00,32.5,31.7,29.71,NE,41,0.0,0.0,97,0.00,,,0.05,WeatherCatV1.11B39,2013-01-28 16:50:00,
2013-01-28 09:55:00,32.6,31.6,29.71,NE,56,0.0,0.0,96,0.00,,,0.05,WeatherCatV1.11B39,2013-01-28 16:55:00,
2013-01-28 10:00:00,32.9,31.9,29.72,SSE,155,0.0,0.0,96,0.00,,,0.05,WeatherCatV1.11B39,2013-01-28 17:00:00,
2013-01-28 10:05:00,32.9,31.9,29.71,South,183,0.0,0.0,96,0.00,,,0.05,WeatherCatV1.11B39,2013-01-28 17:05:00,
2013-01-28 10:10:00,33.0,31.7,29.72,SSE,157,0.0,0.0,95,0.00,,,0.05,WeatherCatV1.11B39,2013-01-28 17:10:00,
2013-01-28 10:15:00,33.0,31.7,29.71,SSE,158,0.0,0.0,95,0.00,,,0.05,WeatherCatV1.11B39,2013-01-28 17:15:00,
2013-01-28 10:20:00,33.1,31.8,29.72,SW,233,1.0,1.0,95,0.00,,,0.05,WeatherCatV1.11B39,2013-01-28 17:20:00,
2013-01-28 10:25:00,33.0,31.7,29.72,SSW,193,2.0,2.0,95,0.00,,,0.05,WeatherCatV1.11B39,2013-01-28 17:25:00,
2013-01-28 10:30:00,33.1,31.8,29.72,SW,219,1.0,1.0,95,0.00,,,0.05,WeatherCatV1.11B39,2013-01-28 17:30:00,
2013-01-28 10:35:00,33.1,31.8,29.72,WSW,253,0.0,0.0,95,0.00,,,0.05,WeatherCatV1.11B39,2013-01-28 17:35:00,
2013-01-28 10:40:00,33.1,31.6,29.73,West,260,0.0,1.0,94,0.00,,,0.05,WeatherCatV1.11B39,2013-01-28 17:40:00,
2013-01-28 10:45:00,33.3,31.8,29.73,South,178,0.0,1.0,94,0.00,,,0.05,WeatherCatV1.11B39,2013-01-28 17:45:00,
2013-01-28 10:50:00,33.4,31.6,29.73,SE,134,0.0,1.0,93,0.00,,,0.05,WeatherCatV1.11B39,2013-01-28 17:50:00,
2013-01-28 10:55:00,33.3,31.5,29.73,SSE,150,1.0,1.0,93,0.00,,,0.05,WeatherCatV1.11B39,2013-01-28 17:55:00,
2013-01-28 11:00:00,33.4,31.9,29.73,SSE,165,1.0,1.0,94,0.00,,,0.05,WeatherCatV1.11B39,2013-01-28 18:00:00,
2013-01-28 11:05:00,33.2,31.4,29.73,South,173,1.0,2.0,93,0.00,,,0.05,WeatherCatV1.11B39,2013-01-28 18:05:00,
2013-01-28 11:10:00,33.2,31.7,29.73,SSE,165,0.0,0.0,94,0.00,,,0.05,WeatherCatV1.11B39,2013-01-28 18:10:00,
2013-01-28 11:15:00,33.3,31.8,29.73,SE,141,0.0,1.0,94,0.00,,,0.05,WeatherCatV1.11B39,2013-01-28 18:15:00,
2013-01-28 11:20:00,33.2,31.7,29.73,ESE,112,0.0,1.0,94,0.00,,,0.05,WeatherCatV1.11B39,2013-01-28 18:20:00,
2013-01-28 11:25:00,33.2,31.7,29.73,SSE,158,0.0,2.0,94,0.00,,,0.05,WeatherCatV1.11B39,2013-01-28 18:25:00,
2013-01-28 11:30:00,33.3,31.8,29.72,East,96,1.0,1.0,94,0.00,,,0.05,WeatherCatV1.11B39,2013-01-28 18:30:00,
2013-01-28 11:35:00,33.2,31.4,29.72,East,95,1.0,2.0,93,0.00,,,0.05,WeatherCatV1.11B39,2013-01-28 18:35:00,
2013-01-28 11:40:00,33.2,31.7,29.72,ENE,68,1.0,2.0,94,0.00,,,0.05,WeatherCatV1.11B39,2013-01-28 18:40:00,
2013-01-28 11:45:00,33.1,31.6,29.72,NNE,32,0.0,1.0,94,0.00,,,0.05,WeatherCatV1.11B39,2013-01-28 18:45:00,
2013-01-28 11:50:00,33.4,31.9,29.72,NE,37,1.0,2.0,94,0.00,,,0.05,WeatherCatV1.11B39,2013-01-28 18:50:00,
2013-01-28 11:55:00,33.5,32.0,29.71,North,4,0.0,1.0,94,0.00,,,0.05,WeatherCatV1.11B39,2013-01-28 18:55:00,
2013-01-28 12:00:00,33.5,32.0,29.71,NE,36,0.0,1.0,94,0.00,,,0.05,WeatherCatV1.11B39,2013-01-28 19:00:00,
2013-01-28 12:05:00,33.7,31.4,29.71,East,86,1.0,3.0,91,0.00,,,0.05,WeatherCatV1.11B39,2013-01-28 19:05:00,
2013-01-28 12:10:00,33.6,31.3,29.71,SE,138,0.0,2.0,91,0.00,,,0.05,WeatherCatV1.11B39,2013-01-28 19:10:00,
2013-01-28 12:15:00,33.8,31.5,29.70,SE,140,1.0,1.0,91,0.00,,,0.05,WeatherCatV1.11B39,2013-01-28 19:15:00,
2013-01-28 12:20:00,34.2,31.9,29.71,SE,146,0.0,0.0,91,0.00,,,0.05,WeatherCatV1.11B39,2013-01-28 19:20:00,
2013-01-28 12:25:00,34.4,32.0,29.70,SE,146,0.0,0.0,91,0.00,,,0.05,WeatherCatV1.11B39,2013-01-28 19:25:00,
2013-01-28 12:30:00,34.3,31.4,29.69,NE,34,0.0,0.0,89,0.00,,,0.05,WeatherCatV1.11B39,2013-01-28 19:30:00,
2013-01-28 12:35:00,34.4,31.8,29.69,ENE,64,0.0,1.0,90,0.00,,,0.05,WeatherCatV1.11B39,2013-01-28 19:35:00,
2013-01-28 12:40:00,34.1,31.8,29.69,ESE,106,1.0,1.0,91,0.00,,,0.05,WeatherCatV1.11B39,2013-01-28 19:40:00,
2013-01-28 12:45:00,33.9,31.8,29.69,ENE,67,0.0,0.0,92,0.00,,,0.05,WeatherCatV1.11B39,2013-01-28 19:45:00,
2013-01-28 12:50:00,33.9,31.8,29.69,East,84,0.0,1.0,92,0.00,,,0.05,WeatherCatV1.11B39,2013-01-28 19:50:00,
2013-01-28 12:55:00,33.6,31.3,29.69,ESE,106,0.0,0.0,91,0.00,,,0.06,WeatherCatV1.11B39,2013-01-28 19:55:00,
2013-01-28 13:00:00,33.8,31.7,29.69,NE,56,0.0,0.0,92,0.00,,,0.06,WeatherCatV1.11B39,2013-01-28 20:00:00,
2013-01-28 13:05:00,33.9,31.8,29.69,ENE,70,0.0,0.0,92,0.00,,,0.06,WeatherCatV1.11B39,2013-01-28 20:05:00,
2013-01-28 13:10:00,33.4,31.3,29.69,NNE,14,0.0,1.0,92,0.00,,,0.06,WeatherCatV1.11B39,2013-01-28 20:10:00,
2013-01-28 13:15:00,33.1,31.6,29.69,North,354,0.0,3.0,94,0.00,,,0.06,WeatherCatV1.11B39,2013-01-28 20:15:00,
2013-01-28 13:20:00,32.8,31.3,29.69,NNW,342,2.0,3.0,94,0.00,,,0.06,WeatherCatV1.11B39,2013-01-28 20:20:00,
2013-01-28 13:25:00,32.7,31.2,29.70,NNW,338,0.0,3.0,94,0.00,,,0.06,WeatherCatV1.11B39,2013-01-28 20:25:00,
2013-01-28 13:30:00,32.5,31.2,29.70,North,356,4.0,4.0,95,0.00,,,0.06,WeatherCatV1.11B39,2013-01-28 20:30:00,
2013-01-28 13:35:00,32.3,31.0,29.71,North,355,3.0,3.0,95,0.00,,,0.07,WeatherCatV1.11B39,2013-01-28 20:35:00,
2013-01-28 13:40:00,32.2,30.9,29.70,ENE,64,0.0,2.0,95,0.00,,,0.07,WeatherCatV1.11B39,2013-01-28 20:40:00,
2013-01-28 13:45:00,32.1,31.1,29.70,North,356,1.0,1.0,96,0.00,,,0.07,WeatherCatV1.11B39,2013-01-28 20:45:00,
2013-01-28 13:50:00,32.1,31.1,29.71,North,11,1.0,1.0,96,0.00,,,0.07,WeatherCatV1.11B39,2013-01-28 20:50:00,
2013-01-28 13:55:00,32.0,30.7,29.71,North,9,0.0,2.0,95,0.00,,,0.07,WeatherCatV1.11B39,2013-01-28 20:55:00,
2013-01-28 14:00:00,32.1,31.1,29.70,NE,36,0.0,1.0,96,0.00,,,0.07,WeatherCatV1.11B39,2013-01-28 21:00:00,
2013-01-28 14:05:00,32.0,30.7,29.70,NNE,13,0.0,1.0,95,0.00,,,0.07,WeatherCatV1.11B39,2013-01-28 21:05:00,
2013-01-28 14:10:00,31.9,30.6,29.71,East,90,1.0,2.0,95,0.00,,,0.07,WeatherCatV1.11B39,2013-01-28 21:10:00,
2013-01-28 14:15:00,32.0,30.7,29.72,SSE,160,0.0,0.0,95,0.00,,,0.07,WeatherCatV1.11B39,2013-01-28 21:15:00,
2013-01-28 14:20:00,32.2,30.7,29.72,South,176,1.0,1.0,94,0.00,,,0.07,WeatherCatV1.11B39,2013-01-28 21:20:00,
2013-01-28 14:25:00,32.4,30.9,29.73,WSW,249,0.0,1.0,94,0.00,,,0.07,WeatherCatV1.11B39,2013-01-28 21:25:00,
2013-01-28 14:30:00,32.3,30.5,29.73,WSW,253,0.0,2.0,93,0.00,,,0.07,WeatherCatV1.11B39,2013-01-28 21:30:00,
2013-01-28 14:35:00,32.4,30.9,29.73,WNW,293,0.0,0.0,94,0.00,,,0.07,WeatherCatV1.11B39,2013-01-28 21:35:00,
2013-01-28 14:40:00,32.5,31.0,29.73,NNE,17,0.0,0.0,94,0.00,,,0.07,WeatherCatV1.11B39,2013-01-28 21:40:00,
2013-01-28 14:45:00,32.6,30.8,29.73,North,11,1.0,3.0,93,0.00,,,0.07,WeatherCatV1.11B39,2013-01-28 21:45:00,
2013-01-28 14:50:00,32.4,30.3,29.73,NNW,345,1.0,2.0,92,0.00,,,0.07,WeatherCatV1.11B39,2013-01-28 21:50:00,
2013-01-28 14:55:00,32.2,30.4,29.73,NW,308,0.0,1.0,93,0.00,,,0.08,WeatherCatV1.11B39,2013-01-28 21:55:00,
2013-01-28 15:00:00,32.1,30.0,29.73,North,0,1.0,3.0,92,0.00,,,0.08,WeatherCatV1.11B39,2013-01-28 22:00:00,
2013-01-28 15:05:00,32.1,30.3,29.74,West,280,0.0,1.0,93,0.00,,,0.08,WeatherCatV1.11B39,2013-01-28 22:05:00,
2013-01-28 15:10:00,32.1,30.0,29.74,West,264,0.0,1.0,92,0.00,,,0.08,WeatherCatV1.11B39,2013-01-28 22:10:00,
2013-01-28 15:15:00,32.1,30.0,29.73,WNW,288,1.0,1.0,92,0.00,,,0.08,WeatherCatV1.11B39,2013-01-28 22:15:00,
2013-01-28 15:20:00,32.0,29.9,29.73,NW,311,0.0,1.0,92,0.00,,,0.08,WeatherCatV1.11B39,2013-01-28 22:20:00,
2013-01-28 15:25:00,31.9,29.8,29.73,North,356,0.0,1.0,92,0.00,,,0.08,WeatherCatV1.11B39,2013-01-28 22:25:00,
2013-01-28 15:30:00,31.9,29.8,29.73,SE,133,1.0,2.0,92,0.00,,,0.08,WeatherCatV1.11B39,2013-01-28 22:30:00,
2013-01-28 15:35:00,31.7,29.9,29.73,ESE,123,2.0,4.0,93,0.00,,,0.08,WeatherCatV1.11B39,2013-01-28 22:35:00,
2013-01-28 15:40:00,31.6,29.8,29.73,SSE,153,0.0,5.0,93,0.00,,,0.08,WeatherCatV1.11B39,2013-01-28 22:40:00,
2013-01-28 15:45:00,31.6,29.5,29.73,SW,232,0.0,3.0,92,0.00,,,0.08,WeatherCatV1.11B39,2013-01-28 22:45:00,
2013-01-28 15:50:00,31.8,27.2,29.73,SW,233,2.0,11.0,83,0.00,,,0.08,WeatherCatV1.11B39,2013-01-28 22:50:00,
2013-01-28 15:55:00,31.9,26.7,29.74,West,259,6.0,8.0,81,0.00,,,0.08,WeatherCatV1.11B39,2013-01-28 22:55:00,
2013-01-28 16:00:00,31.8,27.5,29.74,SSW,211,7.0,9.0,84,0.00,,,0.08,WeatherCatV1.11B39,2013-01-28 23:00:00,
2013-01-28 16:05:00,31.4,27.1,29.75,ESE,116,3.0,6.0,84,0.00,,,0.08,WeatherCatV1.11B39,2013-01-28 23:05:00,
2013-01-28 16:10:00,31.3,27.6,29.74,South,189,1.0,4.0,86,0.00,,,0.08,WeatherCatV1.11B39,2013-01-28 23:10:00,
2013-01-28 16:15:00,31.3,27.6,29.74,SSE,156,5.0,11.0,86,0.00,,,0.08,WeatherCatV1.11B39,2013-01-28 23:15:00,
2013-01-28 16:20:00,30.9,27.5,29.74,South,177,6.0,11.0,87,0.00,,,0.08,WeatherCatV1.11B39,2013-01-28 23:20:00,
2013-01-28 16:25:00,30.5,27.1,29.73,SSE,153,6.0,12.0,87,0.00,,,0.08,WeatherCatV1.11B39,2013-01-28 23:25:00,
2013-01-28 16:30:00,30.2,27.1,29.73,SE,143,1.0,6.0,88,0.00,,,0.08,WeatherCatV1.11B39,2013-01-28 23:30:00,
2013-01-28 16:35:00,30.0,26.9,29.73,South,180,5.0,5.0,88,0.00,,,0.08,WeatherCatV1.11B39,2013-01-28 23:35:00,
2013-01-28 16:40:00,29.9,26.5,29.73,WSW,243,0.0,3.0,87,0.00,,,0.08,WeatherCatV1.11B39,2013-01-28 23:40:00,
2013-01-28 16:45:00,29.9,26.8,29.73,SSE,147,0.0,1.0,88,0.00,,,0.08,WeatherCatV1.11B39,2013-01-28 23:45:00,
2013-01-28 16:50:00,29.8,26.7,29.73,West,278,1.0,1.0,88,0.00,,,0.08,WeatherCatV1.11B39,2013-01-28 23:50:00,
2013-01-28 16:55:00,29.8,26.7,29.74,West,279,0.0,1.0,88,0.00,,,0.08,WeatherCatV1.11B39,2013-01-28 23:55:00,
2013-01-28 17:00:00,29.7,27.1,29.74,NNW,345,1.0,1.0,90,0.00,,,0.08,WeatherCatV1.11B39,2013-01-29 00:00:00,
2013-01-28 17:05:00,29.6,27.0,29.74,WNW,295,1.0,1.0,90,0.00,,,0.08,WeatherCatV1.11B39,2013-01-29 00:05:00,
2013-01-28 17:10:00,29.6,27.3,29.74,West,269,0.0,2.0,91,0.00,,,0.08,WeatherCatV1.11B39,2013-01-29 00:10:00,
2013-01-28 17:15:00,29.5,27.5,29.74,West,277,0.0,1.0,92,0.00,,,0.08,WeatherCatV1.11B39,2013-01-29 00:15:00,
2013-01-28 17:20:00,29.5,27.2,29.74,South,188,0.0,0.0,91,0.00,,,0.08,WeatherCatV1.11B39,2013-01-29 00:20:00,
2013-01-28 17:25:00,29.4,27.1,29.75,SW,214,0.0,1.0,91,0.00,,,0.08,WeatherCatV1.11B39,2013-01-29 00:25:00,
2013-01-28 17:30:00,29.4,27.1,29.75,NW,319,1.0,2.0,91,0.00,,,0.08,WeatherCatV1.11B39,2013-01-29 00:30:00,
2013-01-28 17:35:00,29.4,27.4,29.74,NW,323,2.0,5.0,92,0.00,,,0.08,WeatherCatV1.11B39,2013-01-29 00:35:00,
2013-01-28 17:40:00,29.4,27.6,29.75,WNW,288,0.0,2.0,93,0.00,,,0.08,WeatherCatV1.11B39,2013-01-29 00:40:00,
2013-01-28 17:45:00,29.3,27.5,29.75,WNW,282,0.0,1.0,93,0.00,,,0.08,WeatherCatV1.11B39,2013-01-29 00:45:00,
2013-01-28 17:50:00,29.2,27.4,29.75,West,260,0.0,0.0,93,0.00,,,0.08,WeatherCatV1.11B39,2013-01-29 00:50:00,
2013-01-28 17:55:00,29.2,27.4,29.75,WNW,293,0.0,1.0,93,0.00,,,0.08,WeatherCatV1.11B39,2013-01-29 00:55:00,
2013-01-28 18:00:00,29.2,27.4,29.75,WSW,241,2.0,3.0,93,0.00,,,0.08,WeatherCatV1.11B39,2013-01-29 01:00:00,
2013-01-28 18:05:00,29.2,27.4,29.75,WSW,253,1.0,4.0,93,0.00,,,0.08,WeatherCatV1.11B39,2013-01-29 01:05:00,
2013-01-28 18:10:00,29.3,27.5,29.75,WNW,300,2.0,4.0,93,0.00,,,0.08,WeatherCatV1.11B39,2013-01-29 01:10:00,
2013-01-28 18:15:00,29.4,27.4,29.76,WSW,253,2.0,3.0,92,0.00,,,0.08,WeatherCatV1.11B39,2013-01-29 01:15:00,
2013-01-28 18:20:00,29.3,27.3,29.76,WNW,286,2.0,5.0,92,0.00,,,0.08,WeatherCatV1.11B39,2013-01-29 01:20:00,
2013-01-28 18:25:00,29.1,27.3,29.75,NNW,344,4.0,5.0,93,0.00,,,0.08,WeatherCatV1.11B39,2013-01-29 01:25:00,
2013-01-28 18:30:00,28.9,27.1,29.75,NNW,342,4.0,5.0,93,0.00,,,0.08,WeatherCatV1.11B39,2013-01-29 01:30:00,
2013-01-28 18:35:00,28.6,27.1,29.76,WNW,283,2.0,9.0,94,0.00,,,0.08,WeatherCatV1.11B39,2013-01-29 01:35:00,
2013-01-28 18:40:00,28.2,26.4,29.76,NW,307,1.0,11.0,93,0.00,,,0.08,WeatherCatV1.11B39,2013-01-29 01:40:00,
2013-01-28 18:45:00,27.7,25.4,29.76,NW,311,3.0,10.0,91,0.00,,,0.08,WeatherCatV1.11B39,2013-01-29 01:45:00,
2013-01-28 18:50:00,27.2,24.9,29.76,NW,309,3.0,3.0,91,0.00,,,0.08,WeatherCatV1.11B39,2013-01-29 01:50:00,
2013-01-28 18:55:00,27.0,24.2,29.76,WNW,283,2.0,7.0,89,0.00,,,0.08,WeatherCatV1.11B39,2013-01-29 01:55:00,
2013-01-28 19:00:00,27.0,24.2,29.76,NNW,345,2.0,8.0,89,0.00,,,0.08,WeatherCatV1.11B39,2013-01-29 02:00:00,
2013-01-28 19:05:00,27.0,23.9,29.77,WNW,284,2.0,5.0,88,0.00,,,0.08,WeatherCatV1.11B39,2013-01-29 02:05:00,
2013-01-28 19:10:00,26.9,23.8,29.77,WNW,292,6.0,9.0,88,0.00,,,0.08,WeatherCatV1.11B39,2013-01-29 02:10:00,
2013-01-28 19:15:00,26.9,23.8,29.77,NW,325,3.0,6.0,88,0.00,,,0.08,WeatherCatV1.11B39,2013-01-29 02:15:00,
2013-01-28 19:20:00,26.8,23.7,29.78,NW,326,6.0,11.0,88,0.00,,,0.08,WeatherCatV1.11B39,2013-01-29 02:20:00,
2013-01-28 19:25:00,26.6,23.5,29.78,West,269,4.0,11.0,88,0.00,,,0.08,WeatherCatV1.11B39,2013-01-29 02:25:00,
2013-01-28 19:30:00,26.5,23.7,29.78,NNW,343,5.0,12.0,89,0.00,,,0.08,WeatherCatV1.11B39,2013-01-29 02:30:00,
2013-01-28 19:35:00,26.2,23.7,29.79,North,349,4.0,9.0,90,0.00,,,0.08,WeatherCatV1.11B39,2013-01-29 02:35:00,
2013-01-28 19:40:00,25.9,23.6,29.79,NNW,344,9.0,10.0,91,0.00,,,0.08,WeatherCatV1.11B39,2013-01-29 02:40:00,
2013-01-28 19:45:00,25.7,23.7,29.79,NW,314,8.0,11.0,92,0.00,,,0.08,WeatherCatV1.11B39,2013-01-29 02:45:00,
2013-01-28 19:50:00,25.5,23.8,29.79,NW,315,3.0,6.0,93,0.00,,,0.08,WeatherCatV1.11B39,2013-01-29 02:50:00,
2013-01-28 19:55:00,25.3,23.3,29.79,NNW,344,4.0,10.0,92,0.00,,,0.08,WeatherCatV1.11B39,2013-01-29 02:55:00,
2013-01-28 20:00:00,25.2,23.2,29.80,NNW,345,5.0,8.0,92,0.00,,,0.08,WeatherCatV1.11B39,2013-01-29 03:00:00,
2013-01-28 20:05:00,25.2,23.2,29.79,WNW,299,3.0,8.0,92,0.00,,,0.08,WeatherCatV1.11B39,2013-01-29 03:05:00,
2013-01-28 20:10:00,25.2,22.7,29.80,NNW,327,1.0,5.0,90,0.00,,,0.08,WeatherCatV1.11B39,2013-01-29 03:10:00,
2013-01-28 20:15:00,25.2,22.7,29.80,NNW,330,3.0,6.0,90,0.00,,,0.08,WeatherCatV1.11B39,2013-01-29 03:15:00,
2013-01-28 20:20:00,25.1,22.6,29.80,WNW,293,4.0,6.0,90,0.00,,,0.08,WeatherCatV1.11B39,2013-01-29 03:20:00,
2013-01-28 20:25:00,25.1,22.6,29.80,NNW,340,2.0,5.0,90,0.00,,,0.08,WeatherCatV1.11B39,2013-01-29 03:25:00,
2013-01-28 20:30:00,25.1,22.6,29.80,NNW,346,1.0,6.0,90,0.00,,,0.08,WeatherCatV1.11B39,2013-01-29 03:30:00,
2013-01-28 20:35:00,25.0,22.8,29.80,NNW,337,4.0,4.0,91,0.00,,,0.08,WeatherCatV1.11B39,2013-01-29 03:35:00,
2013-01-28 20:40:00,24.9,22.7,29.80,WNW,300,1.0,4.0,91,0.00,,,0.08,WeatherCatV1.11B39,2013-01-29 03:40:00,
2013-01-28 20:45:00,24.8,22.6,29.81,WNW,283,1.0,1.0,91,0.00,,,0.08,WeatherCatV1.11B39,2013-01-29 03:45:00,
2013-01-28 20:50:00,24.7,22.7,29.81,West,274,3.0,5.0,92,0.00,,,0.08,WeatherCatV1.11B39,2013-01-29 03:50:00,
2013-01-28 20:55:00,24.6,22.6,29.81,WNW,284,1.0,2.0,92,0.00,,,0.08,WeatherCatV1.11B39,2013-01-29 03:55:00,
2013-01-28 21:00:00,24.4,22.2,29.81,WNW,293,2.0,3.0,91,0.00,,,0.08,WeatherCatV1.11B39,2013-01-29 04:00:00,
2013-01-28 21:05:00,24.4,22.2,29.81,North,352,4.0,5.0,91,0.00,,,0.08,WeatherCatV1.11B39,2013-01-29 04:05:00,
2013-01-28 21:10:00,24.4,22.2,29.81,North,4,2.0,2.0,91,0.00,,,0.08,WeatherCatV1.11B39,2013-01-29 04:10:00,
2013-01-28 21:15:00,24.3,21.8,29.82,WNW,291,0.0,3.0,90,0.00,,,0.08,WeatherCatV1.11B39,2013-01-29 04:15:00,
2013-01-28 21:20:00,24.3,21.5,29.82,North,358,2.0,2.0,89,0.00,,,0.08,WeatherCatV1.11B39,2013-01-29 04:20:00,
2013-01-28 21:25:00,24.1,20.8,29.82,NNW,335,3.0,4.0,87,0.00,,,0.08,WeatherCatV1.11B39,2013-01-29 04:25:00,
2013-01-28 21:30:00,24.0,20.7,29.83,NNE,33,3.0,3.0,87,0.00,,,0.08,WeatherCatV1.11B39,2013-01-29 04:30:00,
2013-01-28 21:35:00,23.9,20.1,29.83,NNW,342,0.0,1.0,85,0.00,,,0.08,WeatherCatV1.11B39,2013-01-29 04:35:00,
2013-01-28 21:40:00,23.9,20.3,29.83,NNE,12,2.0,4.0,86,0.00,,,0.08,WeatherCatV1.11B39,2013-01-29 04:40:00,
2013-01-28 21:45:00,23.8,20.2,29.83,NW,315,0.0,1.0,86,0.00,,,0.08,WeatherCatV1.11B39,2013-01-29 04:45:00,
2013-01-28 21:50:00,23.6,19.8,29.83,NE,39,0.0,3.0,85,0.00,,,0.08,WeatherCatV1.11B39,2013-01-29 04:50:00,
2013-01-28 21:55:00,23.5,19.9,29.84,NNW,342,1.0,2.0,86,0.00,,,0.08,WeatherCatV1.11B39,2013-01-29 04:55:00,
2013-01-28 22:00:00,23.4,19.8,29.84,NW,319,0.0,2.0,86,0.00,,,0.08,WeatherCatV1.11B39,2013-01-29 05:00:00,
2013-01-28 22:01:00,23.4,20.1,29.84,NW,326,0.0,2.0,87,0.00,,,0.08,WeatherCatV1.11B39,2013-01-29 05:01:00,
2013-01-28 22:06:00,23.3,19.2,29.84,NNE,18,2.0,5.0,84,0.00,,,0.08,WeatherCatV1.11B39,2013-01-29 05:06:00,
2013-01-28 22:11:00,23.1,19.0,29.84,North,359,5.0,5.0,84,0.00,,,0.08,WeatherCatV1.11B39,2013-01-29 05:11:00,
2013-01-28 22:16:00,22.8,19.0,29.85,NNW,347,4.0,5.0,85,0.00,,,0.08,WeatherCatV1.11B39,2013-01-29 05:16:00,
2013-01-28 22:21:00,22.6,18.8,29.84,North,0,7.0,10.0,85,0.00,,,0.08,WeatherCatV1.11B39,2013-01-29 05:21:00,
2013-01-28 22:26:00,22.4,18.3,29.85,NNW,338,2.0,8.0,84,0.00,,,0.08,WeatherCatV1.11B39,2013-01-29 05:26:00,
2013-01-28 22:31:00,22.3,18.2,29.85,West,276,2.0,6.0,84,0.00,,,0.08,WeatherCatV1.11B39,2013-01-29 05:31:00,
2013-01-28 22:36:00,22.1,18.0,29.86,NW,324,0.0,2.0,84,0.00,,,0.08,WeatherCatV1.11B39,2013-01-29 05:36:00,
2013-01-28 22:41:00,21.9,17.8,29.86,WNW,286,3.0,5.0,84,0.00,,,0.08,WeatherCatV1.11B39,2013-01-29 05:41:00,
2013-01-28 22:46:00,21.8,17.7,29.86,North,354,4.0,8.0,84,0.00,,,0.08,WeatherCatV1.11B39,2013-01-29 05:46:00,
2013-01-28 22:51:00,21.7,17.6,29.87,West,264,3.0,6.0,84,0.00,,,0.08,WeatherCatV1.11B39,2013-01-29 05:51:00,
2013-01-28 22:56:00,21.7,17.6,29.87,WNW,293,2.0,2.0,84,0.00,,,0.08,WeatherCatV1.11B39,2013-01-29 05:56:00,
2013-01-28 23:01:00,21.5,17.7,29.87,NNW,339,2.0,2.0,85,0.00,,,0.08,WeatherCatV1.11B39,2013-01-29 06:01:00,
2013-01-28 23:06:00,21.4,17.6,29.87,North,355,1.0,5.0,85,0.00,,,0.08,WeatherCatV1.11B39,2013-01-29 06:06:00,
2013-01-28 23:11:00,21.3,17.5,29.88,NNW,334,1.0,3.0,85,0.00,,,0.08,WeatherCatV1.11B39,2013-01-29 06:11:00,
2013-01-28 23:16:00,21.3,17.5,29.88,North,350,1.0,1.0,85,0.00,,,0.08,WeatherCatV1.11B39,2013-01-29 06:16:00,
2013-01-28 23:21:00,21.3,17.5,29.88,NW,319,1.0,4.0,85,0.00,,,0.08,WeatherCatV1.11B39,2013-01-29 06:21:00,
2013-01-28 23:26:00,21.3,17.5,29.88,WNW,296,1.0,3.0,85,0.00,,,0.08,WeatherCatV1.11B39,2013-01-29 06:26:00,
2013-01-28 23:31:00,21.3,17.5,29.88,North,350,1.0,1.0,85,0.00,,,0.08,WeatherCatV1.11B39,2013-01-29 06:31:00,
2013-01-28 23:36:00,21.2,17.4,29.88,NE,37,0.0,2.0,85,0.00,,,0.08,WeatherCatV1.11B39,2013-01-29 06:36:00,
2013-01-28 23:41:00,21.1,17.3,29.88,WNW,294,0.0,1.0,85,0.00,,,0.08,WeatherCatV1.11B39,2013-01-29 06:41:00,
2013-01-28 23:46:00,21.1,17.3,29.88,NE,34,0.0,1.0,85,0.00,,,0.08,WeatherCatV1.11B39,2013-01-29 06:46:00,
2013-01-28 23:51:00,21.0,17.2,29.89,NW,321,2.0,4.0,85,0.00,,,0.08,WeatherCatV1.11B39,2013-01-29 06:51:00,
2013-01-28 23:56:00,20.9,17.1,29.88,NNW,342,1.0,2.0,85,0.00,,,0.08,WeatherCatV1.11B39,2013-01-29 06:56:00,